sensor_id;sensor_type;location;lat;lon;timestamp;P1;durP1;ratioP1;P2;durP2;ratioP2
45650;SDS011;31365;48.858;8.530;2022-10-03T17:09:40;12.07;;;9.03;;
45650;SDS011;31365;48.858;8.530;2022-10-03T17:12:14;10.33;;;7.00;;
45650;SDS011;31365;48.858;8.530;2022-10-03T17:14:46;9.63;;;8.17;;
45650;SDS011;31365;48.858;8.530;2022-10-03T17:17:21;9.47;;;6.20;;
45650;SDS011;31365;48.858;8.530;2022-10-03T17:19:58;12.00;;;5.70;;
45650;SDS011;31365;48.858;8.530;2022-10-03T17:22:33;6.70;;;4.90;;
45650;SDS011;31365;48.858;8.530;2022-10-03T17:28:09;6.50;;;4.23;;
45650;SDS011;31365;48.858;8.530;2022-10-03T17:30:54;6.83;;;4.07;;
45650;SDS011;31365;48.858;8.530;2022-10-03T17:33:32;6.43;;;3.60;;
45650;SDS011;31365;48.858;8.530;2022-10-03T17:36:18;6.83;;;3.80;;
45650;SDS011;31365;48.858;8.530;2022-10-03T17:39:08;6.13;;;4.37;;
45650;SDS011;31365;48.858;8.530;2022-10-03T17:42:00;6.57;;;4.30;;
45650;SDS011;31365;48.858;8.530;2022-10-03T17:44:45;8.93;;;5.43;;
45650;SDS011;31365;48.858;8.530;2022-10-03T17:47:28;7.17;;;5.77;;
45650;SDS011;31365;48.858;8.530;2022-10-03T17:50:13;10.03;;;6.70;;
45650;SDS011;31365;48.858;8.530;2022-10-03T17:52:47;12.83;;;10.97;;
45650;SDS011;31365;48.858;8.530;2022-10-03T17:55:19;11.63;;;10.47;;
45650;SDS011;31365;48.858;8.530;2022-10-03T17:57:54;9.43;;;8.53;;
45650;SDS011;31365;48.858;8.530;2022-10-03T18:00:32;8.97;;;6.93;;
45650;SDS011;31365;48.858;8.530;2022-10-03T18:03:21;9.23;;;6.83;;
45650;SDS011;31365;48.858;8.530;2022-10-03T18:05:57;9.43;;;6.33;;
45650;SDS011;31365;48.858;8.530;2022-10-03T18:08:30;10.53;;;6.93;;
45650;SDS011;31365;48.858;8.530;2022-10-03T18:11:05;9.77;;;5.77;;
45650;SDS011;31365;48.858;8.530;2022-10-03T18:13:38;8.23;;;5.00;;
45650;SDS011;31365;48.858;8.530;2022-10-03T18:16:17;8.77;;;5.73;;
45650;SDS011;31365;48.858;8.530;2022-10-03T18:21:53;9.27;;;5.67;;
45650;SDS011;31365;48.858;8.530;2022-10-03T18:24:43;9.90;;;7.00;;
45650;SDS011;31365;48.858;8.530;2022-10-03T18:27:41;11.23;;;5.60;;
45650;SDS011;31365;48.858;8.530;2022-10-03T18:30:41;9.13;;;5.33;;
45650;SDS011;31365;48.858;8.530;2022-10-03T18:33:18;7.27;;;4.50;;
45650;SDS011;31365;48.858;8.530;2022-10-03T18:35:55;5.50;;;4.53;;
45650;SDS011;31365;48.858;8.530;2022-10-03T18:38:29;6.07;;;4.17;;
45650;SDS011;31365;48.858;8.530;2022-10-03T18:41:08;5.97;;;3.77;;
45650;SDS011;31365;48.858;8.530;2022-10-03T18:43:43;7.70;;;4.57;;
45650;SDS011;31365;48.858;8.530;2022-10-03T18:46:20;6.20;;;5.03;;
45650;SDS011;31365;48.858;8.530;2022-10-03T18:48:56;10.93;;;6.27;;
45650;SDS011;31365;48.858;8.530;2022-10-03T18:51:48;6.80;;;5.43;;
45650;SDS011;31365;48.858;8.530;2022-10-03T18:54:29;10.10;;;6.03;;
45650;SDS011;31365;48.858;8.530;2022-10-03T18:57:13;6.50;;;5.07;;
45650;SDS011;31365;48.858;8.530;2022-10-03T18:59:50;7.20;;;4.87;;
45650;SDS011;31365;48.858;8.530;2022-10-03T19:02:31;6.43;;;5.03;;
45650;SDS011;31365;48.858;8.530;2022-10-03T19:05:16;10.37;;;5.53;;
45650;SDS011;31365;48.858;8.530;2022-10-03T19:07:50;9.50;;;4.57;;
45650;SDS011;31365;48.858;8.530;2022-10-03T19:10:36;7.33;;;4.80;;
45650;SDS011;31365;48.858;8.530;2022-10-03T19:13:14;12.60;;;8.43;;
45650;SDS011;31365;48.858;8.530;2022-10-03T19:16:00;13.30;;;8.33;;
45650;SDS011;31365;48.858;8.530;2022-10-03T19:18:45;11.23;;;7.13;;
45650;SDS011;31365;48.858;8.530;2022-10-03T19:21:31;12.37;;;6.17;;
45650;SDS011;31365;48.858;8.530;2022-10-03T19:24:05;9.37;;;5.90;;
45650;SDS011;31365;48.858;8.530;2022-10-03T19:26:43;9.83;;;6.93;;
45650;SDS011;31365;48.858;8.530;2022-10-03T19:29:14;7.83;;;6.37;;
45650;SDS011;31365;48.858;8.530;2022-10-03T19:31:55;5.93;;;4.90;;
45650;SDS011;31365;48.858;8.530;2022-10-03T19:34:33;5.87;;;4.70;;
45650;SDS011;31365;48.858;8.530;2022-10-03T19:37:06;6.27;;;5.10;;
45650;SDS011;31365;48.858;8.530;2022-10-03T19:39:43;6.53;;;4.17;;
45650;SDS011;31365;48.858;8.530;2022-10-03T19:42:20;9.90;;;4.33;;
45650;SDS011;31365;48.858;8.530;2022-10-03T19:44:58;8.37;;;4.30;;
45650;SDS011;31365;48.858;8.530;2022-10-03T19:47:27;6.97;;;4.37;;
45650;SDS011;31365;48.858;8.530;2022-10-03T19:50:03;7.00;;;4.70;;
45650;SDS011;31365;48.858;8.530;2022-10-03T19:52:43;4.83;;;4.17;;
45650;SDS011;31365;48.858;8.530;2022-10-03T19:55:13;8.67;;;5.77;;
45650;SDS011;31365;48.858;8.530;2022-10-03T19:57:48;6.50;;;4.37;;
45650;SDS011;31365;48.858;8.530;2022-10-03T20:00:25;7.43;;;4.47;;
45650;SDS011;31365;48.858;8.530;2022-10-03T20:03:04;7.67;;;5.07;;
45650;SDS011;31365;48.858;8.530;2022-10-03T20:05:48;5.27;;;4.47;;
45650;SDS011;31365;48.858;8.530;2022-10-03T20:53:28;4.60;;;3.37;;
45650;SDS011;31365;48.858;8.530;2022-10-03T20:55:59;5.20;;;3.17;;
45650;SDS011;31365;48.858;8.530;2022-10-03T20:58:34;3.43;;;3.10;;
45650;SDS011;31365;48.858;8.530;2022-10-03T21:01:13;4.10;;;3.70;;
45650;SDS011;31365;48.858;8.530;2022-10-03T21:03:57;6.33;;;5.30;;
45650;SDS011;31365;48.858;8.530;2022-10-03T21:06:44;4.03;;;3.57;;
45650;SDS011;31365;48.858;8.530;2022-10-03T21:09:31;3.43;;;3.13;;
45650;SDS011;31365;48.858;8.530;2022-10-03T21:12:12;4.97;;;3.43;;
45650;SDS011;31365;48.858;8.530;2022-10-03T21:14:47;3.90;;;3.17;;
45650;SDS011;31365;48.858;8.530;2022-10-03T21:17:23;3.80;;;3.30;;
45650;SDS011;31365;48.858;8.530;2022-10-03T21:19:56;3.97;;;3.17;;
45650;SDS011;31365;48.858;8.530;2022-10-03T21:22:34;4.27;;;3.03;;
45650;SDS011;31365;48.858;8.530;2022-10-03T21:25:04;4.60;;;3.47;;
45650;SDS011;31365;48.858;8.530;2022-10-03T21:27:47;4.13;;;3.07;;
45650;SDS011;31365;48.858;8.530;2022-10-03T21:30:21;3.83;;;2.90;;
45650;SDS011;31365;48.858;8.530;2022-10-03T21:33:10;4.00;;;3.20;;
45650;SDS011;31365;48.858;8.530;2022-10-03T21:35:45;4.13;;;3.20;;
45650;SDS011;31365;48.858;8.530;2022-10-03T21:38:20;4.83;;;3.17;;
45650;SDS011;31365;48.858;8.530;2022-10-03T21:43:52;5.90;;;3.13;;
45650;SDS011;31365;48.858;8.530;2022-10-03T21:46:25;4.93;;;3.17;;
45650;SDS011;31365;48.858;8.530;2022-10-03T21:49:11;5.13;;;3.40;;
45650;SDS011;31365;48.858;8.530;2022-10-03T21:52:06;3.77;;;3.00;;
45650;SDS011;31365;48.858;8.530;2022-10-03T21:54:56;3.97;;;2.93;;
45650;SDS011;31365;48.858;8.530;2022-10-03T21:58:11;4.43;;;3.33;;
45650;SDS011;31365;48.858;8.530;2022-10-03T22:01:02;7.23;;;3.77;;
45650;SDS011;31365;48.858;8.530;2022-10-03T22:03:44;5.47;;;3.30;;
45650;SDS011;31365;48.858;8.530;2022-10-03T22:06:21;4.10;;;3.10;;
45650;SDS011;31365;48.858;8.530;2022-10-03T22:08:52;3.93;;;3.47;;
45650;SDS011;31365;48.858;8.530;2022-10-03T22:11:35;4.60;;;3.20;;
45650;SDS011;31365;48.858;8.530;2022-10-03T22:14:15;3.50;;;3.20;;
45650;SDS011;31365;48.858;8.530;2022-10-03T22:16:59;5.57;;;3.60;;
45650;SDS011;31365;48.858;8.530;2022-10-03T22:19:42;5.40;;;4.73;;
45650;SDS011;31365;48.858;8.530;2022-10-03T22:22:20;8.20;;;5.90;;
45650;SDS011;31365;48.858;8.530;2022-10-03T22:25:07;10.13;;;5.77;;
45650;SDS011;31365;48.858;8.530;2022-10-03T22:27:55;7.23;;;4.27;;
45650;SDS011;31365;48.858;8.530;2022-10-03T22:30:36;6.50;;;3.57;;
45650;SDS011;31365;48.858;8.530;2022-10-03T22:33:14;3.80;;;3.27;;
45650;SDS011;31365;48.858;8.530;2022-10-03T22:35:53;4.93;;;3.83;;
45650;SDS011;31365;48.858;8.530;2022-10-03T22:38:28;3.93;;;2.53;;
45650;SDS011;31365;48.858;8.530;2022-10-03T22:41:02;4.17;;;3.77;;
45650;SDS011;31365;48.858;8.530;2022-10-03T22:43:37;6.03;;;4.03;;
45650;SDS011;31365;48.858;8.530;2022-10-03T22:46:09;8.37;;;6.10;;
45650;SDS011;31365;48.858;8.530;2022-10-03T22:48:44;6.40;;;5.33;;
45650;SDS011;31365;48.858;8.530;2022-10-03T22:51:17;12.53;;;7.57;;
45650;SDS011;31365;48.858;8.530;2022-10-03T22:54:10;5.67;;;4.20;;
45650;SDS011;31365;48.858;8.530;2022-10-03T22:56:43;6.70;;;5.13;;
45650;SDS011;31365;48.858;8.530;2022-10-03T22:59:21;6.77;;;4.73;;
45650;SDS011;31365;48.858;8.530;2022-10-03T23:01:55;8.07;;;5.17;;
45650;SDS011;31365;48.858;8.530;2022-10-03T23:04:28;7.87;;;5.03;;
45650;SDS011;31365;48.858;8.530;2022-10-03T23:07:07;10.57;;;6.47;;
45650;SDS011;31365;48.858;8.530;2022-10-03T23:09:59;7.93;;;6.17;;
45650;SDS011;31365;48.858;8.530;2022-10-03T23:12:46;6.77;;;5.10;;
45650;SDS011;31365;48.858;8.530;2022-10-03T23:15:23;8.13;;;6.83;;
45650;SDS011;31365;48.858;8.530;2022-10-03T23:17:59;7.93;;;6.20;;
45650;SDS011;31365;48.858;8.530;2022-10-03T23:20:59;8.07;;;6.30;;
45650;SDS011;31365;48.858;8.530;2022-10-03T23:23:35;8.10;;;5.30;;
45650;SDS011;31365;48.858;8.530;2022-10-03T23:26:30;5.20;;;4.50;;
45650;SDS011;31365;48.858;8.530;2022-10-03T23:29:21;6.40;;;5.67;;
45650;SDS011;31365;48.858;8.530;2022-10-03T23:31:58;6.83;;;4.70;;
45650;SDS011;31365;48.858;8.530;2022-10-03T23:37:41;7.57;;;4.67;;
45650;SDS011;31365;48.858;8.530;2022-10-03T23:40:25;4.80;;;4.20;;
45650;SDS011;31365;48.858;8.530;2022-10-03T23:43:21;8.53;;;5.47;;
45650;SDS011;31365;48.858;8.530;2022-10-03T23:45:57;7.50;;;4.50;;
45650;SDS011;31365;48.858;8.530;2022-10-03T23:48:31;5.03;;;4.13;;
45650;SDS011;31365;48.858;8.530;2022-10-03T23:51:11;5.57;;;3.90;;
45650;SDS011;31365;48.858;8.530;2022-10-03T23:53:45;4.60;;;3.87;;
45650;SDS011;31365;48.858;8.530;2022-10-03T23:56:32;5.27;;;3.83;;
45650;SDS011;31365;48.858;8.530;2022-10-03T23:59:10;5.07;;;4.13;;
